KPNS/PNS METAR and TAF weather

Enter ICAO airport designator
Station Type Date Time Source
KPNS METAR 2022/08/16 18:53 UTC NOAA

KPNS 161853Z 30009KT 10SM SCT046 BKN060 BKN075 34/25 A2991 RMK AO2 LTG DSNT N SLP128 T03440250


Station Type Date Time Source
KPNS Decoded METAR 2022/08/16 18:53 UTC NOAA

PENSACOLA REGIONAL AIRPORT, FL, United States (KPNS) 30-29N 087-11W 38M
Aug 16, 2022 - 02:53 PM EDT / 2022.08.16 1853 UTC
Wind: from the WNW (300 degrees) at 10 MPH (9 KT):0
Visibility: 10 mile(s):0
Sky conditions: mostly cloudy
Weather: Lightning observed
Temperature: 93.9 F (34.4 C)
Heat index: 108.3 F (42.4 C):1
Dew Point: 77.0 F (25.0 C)
Relative Humidity: 58%
Pressure (altimeter): 29.91 in. Hg (1012 hPa)
ob: KPNS 161853Z 30009KT 10SM SCT046 BKN060 BKN075 34/25 A2991 RMK AO2 LTG DSNT N SLP128 T03440250
cycle: 19

Station Type Date Time Source
KPNS TAF 2022/08/16 18:22 UTC NOAA

TAF KPNS 161720Z 1618/1718 29009KT P6SM SKC
FM162000 25008KT P6SM VCTS SCT050CB
FM170300 28008KT P6SM SCT110

Example: see airport list